< < Back
Terminal Aerodrome Forecast


Current Version              Previous Versions:   1  2  3  4  5  6  7  8  9  

Terminal Aerodrome Forecast

915
FTUS42 KTAE 220500
TAFABY
TAF
KABY 220539Z 2206/2306 00000KT P6SM SKC
     FM221500 01007KT P6SM SKC=



Latest METAR

580
SAUS70 KWBC 230000 RRC
MTRABY
METAR KABY 222353Z 02003KT 10SM CLR 15/09 A3007 RMK AO2 SLP182 T01500089
10239 20144 51010 $


USA.gov is the U.S. government's official web portal to all federal, state and local government web resources and services.